La Grange, Wyoming
Current Conditions -  °F | °C
As of 4:53 PM on Friday 21 Nov 2014 (Local Time) from KTOR Reporting Station
Clear Clear  
Wind Chill: 40°   Ceiling: Unl
Heat Index: 44°   Visibility: 10mi
Dew Point: 20°   Wind: 8mph
Humidity: 38%   Direction: 290°WNW
Pressure: 29.88"   Gusts: NA
Location:  41.64°N, 104.16°W
Report Text: KTOR 212353Z AUTO 29007KT 10SM CLR 07/M07 A2988 RMK AO2 SLP131 T00671067 10139 20067 53009
Loading
Personal Weather Stations






























Interactive Weather Map New forecast layout! Learn more

10-Day Weather Forecast

Advertisements
Track Severe Weather on mobile